createdAt,value
2023-03-17T00:25:34.130Z,1013.62
2023-03-17T00:54:35.762Z,1013.8
2023-03-17T01:23:37.807Z,1013.4
2023-03-17T01:52:40.494Z,1013.17
2023-03-17T02:21:38.171Z,1013.14
2023-03-17T02:50:40.765Z,1013.06
2023-03-17T03:19:40.358Z,1012.92
2023-03-17T03:48:35.582Z,1012.86
2023-03-17T04:17:34.537Z,1012.88
2023-03-17T04:46:34.400Z,1012.83
2023-03-17T05:15:35.457Z,1012.97
2023-03-17T05:44:38.334Z,1013.1
2023-03-17T06:13:37.903Z,1013.22
2023-03-17T06:42:33.062Z,1013.31
2023-03-17T07:11:32.863Z,1013.48
2023-03-17T07:40:36.254Z,1013.3
2023-03-17T08:09:13.263Z,1013.22
2023-03-17T08:38:01.219Z,1013.26
2023-03-17T09:07:09.867Z,1013.09
2023-03-17T09:35:32.725Z,1012.84
2023-03-17T10:04:20.012Z,1012.72
2023-03-17T10:33:03.674Z,1012.55
2023-03-17T11:01:54.826Z,1012.25
2023-03-17T11:30:53.659Z,1011.89
2023-03-17T11:59:21.968Z,1011.83
2023-03-17T12:28:18.976Z,1011.51
2023-03-17T12:57:03.991Z,1011.32
2023-03-17T13:26:05.948Z,1011.07
2023-03-17T13:55:01.469Z,1010.91
2023-03-17T14:24:04.278Z,1011.04
2023-03-17T14:52:49.534Z,1010.89
2023-03-17T15:21:42.625Z,1010.66
2023-03-17T15:50:28.215Z,1010.6
2023-03-17T16:19:28.037Z,1010.64
2023-03-17T16:48:06.131Z,1010.89
2023-03-17T17:16:46.813Z,1011.05
2023-03-17T17:45:28.134Z,1011.52
2023-03-17T18:14:15.513Z,1011.84
2023-03-17T18:42:51.573Z,1011.77
2023-03-17T19:11:31.964Z,1011.82
2023-03-17T19:40:04.574Z,1011.95
2023-03-17T20:08:52.503Z,1012.06
2023-03-17T20:37:36.835Z,1012.15
2023-03-17T21:06:26.964Z,1012.48
2023-03-17T21:34:59.840Z,1012.74
2023-03-17T22:03:35.930Z,1012.75
2023-03-17T22:32:15.563Z,1012.8
2023-03-17T23:01:06.883Z,1012.84
2023-03-17T23:29:49.153Z,1013.14
2023-03-17T23:58:38.230Z,1013.44
